sensor_id;sensor_type;location;lat;lon;timestamp;pressure;altitude;pressure_sealevel;temperature;humidity
8101;BME280;4093;53.470;9.832;2023-10-19T00:00:34;100108.97;;;9.48;81.91
8101;BME280;4093;53.470;9.832;2023-10-19T00:03:03;100112.19;;;9.58;81.33
8101;BME280;4093;53.470;9.832;2023-10-19T00:05:33;100082.06;;;9.21;82.49
8101;BME280;4093;53.470;9.832;2023-10-19T00:08:00;100079.97;;;9.38;81.80
8101;BME280;4093;53.470;9.832;2023-10-19T00:10:32;100076.91;;;9.21;82.65
8101;BME280;4093;53.470;9.832;2023-10-19T00:13:02;100078.84;;;9.50;81.56
8101;BME280;4093;53.470;9.832;2023-10-19T00:15:32;100087.66;;;9.40;82.27
8101;BME280;4093;53.470;9.832;2023-10-19T00:18:02;100087.31;;;9.55;81.78
8101;BME280;4093;53.470;9.832;2023-10-19T00:20:49;100079.09;;;9.75;80.60
8101;BME280;4093;53.470;9.832;2023-10-19T00:23:20;100090.03;;;9.85;81.24
8101;BME280;4093;53.470;9.832;2023-10-19T00:25:56;100064.78;;;9.26;82.28
8101;BME280;4093;53.470;9.832;2023-10-19T00:28:24;100051.75;;;9.31;82.87
8101;BME280;4093;53.470;9.832;2023-10-19T00:30:53;100062.38;;;9.54;81.81
8101;BME280;4093;53.470;9.832;2023-10-19T00:33:28;100042.25;;;9.34;82.45
8101;BME280;4093;53.470;9.832;2023-10-19T00:35:59;100044.59;;;9.43;82.74
8101;BME280;4093;53.470;9.832;2023-10-19T00:38:34;100055.19;;;9.67;81.54
8101;BME280;4093;53.470;9.832;2023-10-19T00:41:15;100007.19;;;9.25;81.85
8101;BME280;4093;53.470;9.832;2023-10-19T00:43:48;100034.25;;;9.08;82.90
8101;BME280;4093;53.470;9.832;2023-10-19T00:46:18;100027.19;;;9.16;82.59
8101;BME280;4093;53.470;9.832;2023-10-19T00:48:55;100037.09;;;9.33;83.09
8101;BME280;4093;53.470;9.832;2023-10-19T00:51:25;100033.47;;;9.41;82.06
8101;BME280;4093;53.470;9.832;2023-10-19T00:54:10;100037.94;;;9.69;81.36
8101;BME280;4093;53.470;9.832;2023-10-19T00:56:42;100030.81;;;9.77;80.80
8101;BME280;4093;53.470;9.832;2023-10-19T00:59:16;100012.75;;;9.43;82.14
8101;BME280;4093;53.470;9.832;2023-10-19T01:01:50;100021.78;;;9.61;82.07
8101;BME280;4093;53.470;9.832;2023-10-19T01:04:22;100004.09;;;9.45;82.53
8101;BME280;4093;53.470;9.832;2023-10-19T01:06:52;100006.66;;;9.47;82.63
8101;BME280;4093;53.470;9.832;2023-10-19T01:09:39;99977.28;;;9.17;83.08
8101;BME280;4093;53.470;9.832;2023-10-19T01:12:10;99997.19;;;9.47;82.00
8101;BME280;4093;53.470;9.832;2023-10-19T01:15:02;99979.19;;;9.44;82.50
8101;BME280;4093;53.470;9.832;2023-10-19T01:17:33;99879.75;;;8.98;82.00
8101;BME280;4093;53.470;9.832;2023-10-19T01:20:09;99963.00;;;9.72;80.34
8101;BME280;4093;53.470;9.832;2023-10-19T01:22:49;99957.06;;;9.36;82.70
8101;BME280;4093;53.470;9.832;2023-10-19T01:25:20;99953.19;;;9.52;81.90
8101;BME280;4093;53.470;9.832;2023-10-19T01:27:53;99945.88;;;9.35;82.69
8101;BME280;4093;53.470;9.832;2023-10-19T01:30:24;99955.88;;;9.80;81.90
8101;BME280;4093;53.470;9.832;2023-10-19T01:32:53;99954.03;;;9.85;81.45
8101;BME280;4093;53.470;9.832;2023-10-19T01:35:21;99934.59;;;9.39;82.94
8101;BME280;4093;53.470;9.832;2023-10-19T01:37:50;99944.28;;;9.31;83.37
8101;BME280;4093;53.470;9.832;2023-10-19T01:40:17;99933.22;;;9.59;81.43
8101;BME280;4093;53.470;9.832;2023-10-19T01:42:47;99927.13;;;9.63;81.69
8101;BME280;4093;53.470;9.832;2023-10-19T01:45:14;99929.53;;;10.00;80.60
8101;BME280;4093;53.470;9.832;2023-10-19T01:47:41;99915.00;;;9.32;82.99
8101;BME280;4093;53.470;9.832;2023-10-19T01:50:10;99936.59;;;9.93;80.22
8101;BME280;4093;53.470;9.832;2023-10-19T01:52:46;99912.66;;;9.56;81.53
8101;BME280;4093;53.470;9.832;2023-10-19T01:55:15;99885.06;;;9.26;81.89
8101;BME280;4093;53.470;9.832;2023-10-19T01:57:47;99931.94;;;9.42;82.20
8101;BME280;4093;53.470;9.832;2023-10-19T02:00:15;99916.22;;;9.52;81.61
8101;BME280;4093;53.470;9.832;2023-10-19T02:02:49;99928.22;;;9.53;82.03
8101;BME280;4093;53.470;9.832;2023-10-19T02:05:17;99945.38;;;9.86;80.95
8101;BME280;4093;53.470;9.832;2023-10-19T02:07:45;99920.38;;;9.57;81.92
8101;BME280;4093;53.470;9.832;2023-10-19T02:10:15;99926.03;;;9.70;81.57
8101;BME280;4093;53.470;9.832;2023-10-19T02:12:42;99931.84;;;9.47;81.53
8101;BME280;4093;53.470;9.832;2023-10-19T02:15:13;99924.19;;;9.42;81.42
8101;BME280;4093;53.470;9.832;2023-10-19T02:17:40;99941.13;;;9.85;81.04
8101;BME280;4093;53.470;9.832;2023-10-19T02:20:09;99854.09;;;9.26;80.31
8101;BME280;4093;53.470;9.832;2023-10-19T02:22:43;99932.59;;;9.50;81.81
8101;BME280;4093;53.470;9.832;2023-10-19T02:25:11;99924.19;;;9.44;82.04
8101;BME280;4093;53.470;9.832;2023-10-19T02:27:41;99932.03;;;9.72;81.17
8101;BME280;4093;53.470;9.832;2023-10-19T02:30:12;99920.44;;;9.54;81.80
8101;BME280;4093;53.470;9.832;2023-10-19T02:32:39;99937.47;;;9.92;81.16
8101;BME280;4093;53.470;9.832;2023-10-19T02:35:08;99929.69;;;9.63;81.23
8101;BME280;4093;53.470;9.832;2023-10-19T02:37:36;99930.34;;;9.37;82.39
8101;BME280;4093;53.470;9.832;2023-10-19T02:40:06;99925.16;;;9.38;82.40
8101;BME280;4093;53.470;9.832;2023-10-19T02:42:40;99937.22;;;9.70;82.05
8101;BME280;4093;53.470;9.832;2023-10-19T02:45:09;99914.03;;;9.36;82.81
8101;BME280;4093;53.470;9.832;2023-10-19T02:47:35;99912.56;;;9.60;82.41
8101;BME280;4093;53.470;9.832;2023-10-19T02:50:04;99922.22;;;9.52;84.34
8101;BME280;4093;53.470;9.832;2023-10-19T02:52:37;99920.41;;;9.23;84.98
8101;BME280;4093;53.470;9.832;2023-10-19T02:55:05;99925.31;;;9.32;85.31
8101;BME280;4093;53.470;9.832;2023-10-19T02:57:32;99929.94;;;9.54;86.14
8101;BME280;4093;53.470;9.832;2023-10-19T03:00:02;99936.22;;;9.76;85.50
8101;BME280;4093;53.470;9.832;2023-10-19T03:02:35;99924.44;;;9.66;86.07
8101;BME280;4093;53.470;9.832;2023-10-19T03:05:04;99923.50;;;9.37;87.44
8101;BME280;4093;53.470;9.832;2023-10-19T03:07:39;99915.31;;;9.20;88.50
8101;BME280;4093;53.470;9.832;2023-10-19T03:10:10;99899.50;;;8.99;89.41
8101;BME280;4093;53.470;9.832;2023-10-19T03:12:49;99920.59;;;9.15;91.07
8101;BME280;4093;53.470;9.832;2023-10-19T03:15:19;99914.03;;;9.36;88.62
8101;BME280;4093;53.470;9.832;2023-10-19T03:17:47;99916.28;;;9.50;88.96
8101;BME280;4093;53.470;9.832;2023-10-19T03:20:16;99908.56;;;9.16;91.08
8101;BME280;4093;53.470;9.832;2023-10-19T03:22:44;99912.00;;;9.15;91.78
8101;BME280;4093;53.470;9.832;2023-10-19T03:25:13;99898.41;;;9.08;91.81
8101;BME280;4093;53.470;9.832;2023-10-19T03:27:57;99913.13;;;9.04;93.19
8101;BME280;4093;53.470;9.832;2023-10-19T03:30:34;99902.41;;;9.53;90.81
8101;BME280;4093;53.470;9.832;2023-10-19T03:33:07;99887.91;;;9.48;90.00
8101;BME280;4093;53.470;9.832;2023-10-19T03:35:36;99899.75;;;9.24;91.84
8101;BME280;4093;53.470;9.832;2023-10-19T03:38:07;99875.88;;;8.82;93.09
8101;BME280;4093;53.470;9.832;2023-10-19T03:40:41;99898.25;;;9.14;94.04
8101;BME280;4093;53.470;9.832;2023-10-19T03:43:13;99880.13;;;8.83;94.83
8101;BME280;4093;53.470;9.832;2023-10-19T03:45:45;99897.72;;;9.03;95.50
8101;BME280;4093;53.470;9.832;2023-10-19T03:48:18;99861.94;;;8.89;94.42
8101;BME280;4093;53.470;9.832;2023-10-19T03:50:50;99879.59;;;8.70;95.45
8101;BME280;4093;53.470;9.832;2023-10-19T03:53:20;99893.34;;;9.05;94.62
8101;BME280;4093;53.470;9.832;2023-10-19T03:55:49;99889.06;;;9.04;94.89
8101;BME280;4093;53.470;9.832;2023-10-19T03:58:21;99887.78;;;9.22;94.56
8101;BME280;4093;53.470;9.832;2023-10-19T04:00:51;99869.56;;;9.28;92.85
8101;BME280;4093;53.470;9.832;2023-10-19T04:03:18;99850.31;;;8.73;95.75
8101;BME280;4093;53.470;9.832;2023-10-19T04:05:51;99868.81;;;8.89;95.33
8101;BME280;4093;53.470;9.832;2023-10-19T04:08:20;99866.25;;;9.23;94.52
8101;BME280;4093;53.470;9.832;2023-10-19T04:10:49;99843.94;;;8.52;96.76
8101;BME280;4093;53.470;9.832;2023-10-19T04:13:35;99863.50;;;9.29;94.62
8101;BME280;4093;53.470;9.832;2023-10-19T04:16:04;99849.91;;;9.22;95.44
8101;BME280;4093;53.470;9.832;2023-10-19T04:18:36;99790.47;;;9.27;93.44
8101;BME280;4093;53.470;9.832;2023-10-19T04:21:09;99829.97;;;8.62;96.84
8101;BME280;4093;53.470;9.832;2023-10-19T04:23:37;99836.28;;;8.85;95.31
8101;BME280;4093;53.470;9.832;2023-10-19T04:26:05;99834.63;;;8.82;94.80
8101;BME280;4093;53.470;9.832;2023-10-19T04:28:39;99841.28;;;8.56;95.68
8101;BME280;4093;53.470;9.832;2023-10-19T04:31:13;99847.66;;;8.76;98.07
8101;BME280;4093;53.470;9.832;2023-10-19T04:33:42;99841.75;;;8.72;97.62
8101;BME280;4093;53.470;9.832;2023-10-19T04:36:13;99842.50;;;9.10;95.63
8101;BME280;4093;53.470;9.832;2023-10-19T04:38:41;99811.50;;;8.45;96.79
8101;BME280;4093;53.470;9.832;2023-10-19T04:41:10;99834.84;;;8.74;97.16
8101;BME280;4093;53.470;9.832;2023-10-19T04:43:39;99835.06;;;8.65;98.07
8101;BME280;4093;53.470;9.832;2023-10-19T04:46:11;99833.38;;;8.25;99.83
8101;BME280;4093;53.470;9.832;2023-10-19T04:48:40;99831.50;;;8.32;100.00
8101;BME280;4093;53.470;9.832;2023-10-19T04:51:09;99838.53;;;8.25;100.00
8101;BME280;4093;53.470;9.832;2023-10-19T04:53:37;99830.59;;;8.72;98.77
8101;BME280;4093;53.470;9.832;2023-10-19T04:56:06;99809.88;;;8.02;99.46
8101;BME280;4093;53.470;9.832;2023-10-19T04:58:36;99819.69;;;9.27;96.04
8101;BME280;4093;53.470;9.832;2023-10-19T05:01:04;99827.06;;;9.41;95.84
8101;BME280;4093;53.470;9.832;2023-10-19T05:03:32;99797.13;;;8.34;97.92
8101;BME280;4093;53.470;9.832;2023-10-19T05:06:02;99811.78;;;9.02;96.07
8101;BME280;4093;53.470;9.832;2023-10-19T05:08:30;99801.78;;;8.90;97.31
8101;BME280;4093;53.470;9.832;2023-10-19T05:10:59;99787.47;;;8.43;98.21
8101;BME280;4093;53.470;9.832;2023-10-19T05:13:27;99812.72;;;9.31;96.26
8101;BME280;4093;53.470;9.832;2023-10-19T05:15:56;99813.59;;;9.30;94.77
8101;BME280;4093;53.470;9.832;2023-10-19T05:18:26;99776.09;;;8.86;96.03
8101;BME280;4093;53.470;9.832;2023-10-19T05:20:53;99786.94;;;8.66;98.75
8101;BME280;4093;53.470;9.832;2023-10-19T05:23:24;99779.22;;;8.66;98.61
8101;BME280;4093;53.470;9.832;2023-10-19T05:25:59;99773.38;;;8.22;99.86
8101;BME280;4093;53.470;9.832;2023-10-19T05:28:27;99771.44;;;8.30;99.71
8101;BME280;4093;53.470;9.832;2023-10-19T05:30:54;99778.91;;;8.78;98.48
8101;BME280;4093;53.470;9.832;2023-10-19T05:33:22;99771.94;;;8.80;97.83
8101;BME280;4093;53.470;9.832;2023-10-19T05:35:50;99770.34;;;8.42;99.17
8101;BME280;4093;53.470;9.832;2023-10-19T05:38:18;99754.53;;;8.20;99.37
8101;BME280;4093;53.470;9.832;2023-10-19T05:40:49;99769.75;;;8.66;98.94
8101;BME280;4093;53.470;9.832;2023-10-19T05:43:18;99759.13;;;8.44;98.35
8101;BME280;4093;53.470;9.832;2023-10-19T05:45:46;99752.78;;;8.22;100.00
8101;BME280;4093;53.470;9.832;2023-10-19T05:48:16;99757.44;;;8.43;99.45
8101;BME280;4093;53.470;9.832;2023-10-19T05:50:44;99748.06;;;8.41;99.72
8101;BME280;4093;53.470;9.832;2023-10-19T05:53:12;99757.25;;;8.51;98.79
8101;BME280;4093;53.470;9.832;2023-10-19T05:55:40;99745.78;;;8.27;98.57
8101;BME280;4093;53.470;9.832;2023-10-19T05:58:09;99725.03;;;8.33;98.76
8101;BME280;4093;53.470;9.832;2023-10-19T06:00:37;99768.44;;;8.84;98.05
8101;BME280;4093;53.470;9.832;2023-10-19T06:03:05;99742.44;;;8.59;98.00
8101;BME280;4093;53.470;9.832;2023-10-19T06:05:32;99744.03;;;8.29;99.86
8101;BME280;4093;53.470;9.832;2023-10-19T06:08:00;99737.78;;;8.02;100.00
8101;BME280;4093;53.470;9.832;2023-10-19T06:10:28;99743.69;;;8.44;99.07
8101;BME280;4093;53.470;9.832;2023-10-19T06:12:56;99750.59;;;8.42;100.00
8101;BME280;4093;53.470;9.832;2023-10-19T06:15:26;99761.00;;;8.72;99.06
8101;BME280;4093;53.470;9.832;2023-10-19T06:17:55;99748.47;;;8.58;98.12
8101;BME280;4093;53.470;9.832;2023-10-19T06:20:23;99760.25;;;8.68;98.18
8101;BME280;4093;53.470;9.832;2023-10-19T06:22:52;99749.22;;;8.63;99.02
8101;BME280;4093;53.470;9.832;2023-10-19T06:25:21;99743.03;;;8.33;98.50
8101;BME280;4093;53.470;9.832;2023-10-19T06:27:51;99759.94;;;8.46;99.92
8101;BME280;4093;53.470;9.832;2023-10-19T06:30:19;99742.06;;;8.40;99.07
8101;BME280;4093;53.470;9.832;2023-10-19T06:32:52;99766.53;;;8.91;98.84
8101;BME280;4093;53.470;9.832;2023-10-19T06:35:21;99746.84;;;8.55;98.20
8101;BME280;4093;53.470;9.832;2023-10-19T06:37:49;99769.44;;;8.78;98.68
8101;BME280;4093;53.470;9.832;2023-10-19T06:40:17;99754.47;;;8.58;98.65
8101;BME280;4093;53.470;9.832;2023-10-19T06:42:46;99760.19;;;8.71;98.40
8101;BME280;4093;53.470;9.832;2023-10-19T06:45:15;99673.44;;;8.02;99.23
8101;BME280;4093;53.470;9.832;2023-10-19T06:47:44;99764.31;;;9.10;96.45
8101;BME280;4093;53.470;9.832;2023-10-19T06:50:15;99760.88;;;9.09;97.17
8101;BME280;4093;53.470;9.832;2023-10-19T06:52:44;99740.47;;;8.69;99.14
8101;BME280;4093;53.470;9.832;2023-10-19T06:55:13;99724.25;;;8.65;99.00
8101;BME280;4093;53.470;9.832;2023-10-19T06:57:43;99706.38;;;8.59;98.37
8101;BME280;4093;53.470;9.832;2023-10-19T07:00:12;99713.81;;;8.70;98.41
8101;BME280;4093;53.470;9.832;2023-10-19T07:02:43;99708.28;;;8.51;98.35
8101;BME280;4093;53.470;9.832;2023-10-19T07:05:11;99716.06;;;8.82;97.66
8101;BME280;4093;53.470;9.832;2023-10-19T07:07:41;99714.63;;;8.38;99.05
8101;BME280;4093;53.470;9.832;2023-10-19T07:10:10;99726.94;;;8.61;98.43
8101;BME280;4093;53.470;9.832;2023-10-19T07:12:42;99734.38;;;8.37;99.83
8101;BME280;4093;53.470;9.832;2023-10-19T07:15:10;99745.81;;;8.61;99.02
8101;BME280;4093;53.470;9.832;2023-10-19T07:17:40;99703.19;;;8.82;96.52
8101;BME280;4093;53.470;9.832;2023-10-19T07:20:09;99733.44;;;8.75;97.17
8101;BME280;4093;53.470;9.832;2023-10-19T07:22:49;99747.97;;;8.78;96.48
8101;BME280;4093;53.470;9.832;2023-10-19T07:25:17;99748.22;;;8.69;97.82
8101;BME280;4093;53.470;9.832;2023-10-19T07:27:48;99750.28;;;8.54;98.67
8101;BME280;4093;53.470;9.832;2023-10-19T07:30:16;99753.75;;;8.53;99.52
8101;BME280;4093;53.470;9.832;2023-10-19T07:32:48;99742.09;;;8.73;99.00
8101;BME280;4093;53.470;9.832;2023-10-19T07:35:21;99737.59;;;8.47;99.00
8101;BME280;4093;53.470;9.832;2023-10-19T07:37:50;99739.25;;;8.82;98.01
8101;BME280;4093;53.470;9.832;2023-10-19T07:40:18;99725.22;;;8.92;97.94
8101;BME280;4093;53.470;9.832;2023-10-19T07:42:47;99726.78;;;8.67;99.09
8101;BME280;4093;53.470;9.832;2023-10-19T07:45:19;99723.88;;;8.79;98.24
8101;BME280;4093;53.470;9.832;2023-10-19T07:47:47;99714.44;;;8.47;100.00
8101;BME280;4093;53.470;9.832;2023-10-19T07:50:15;99717.69;;;8.53;100.00
8101;BME280;4093;53.470;9.832;2023-10-19T07:52:43;99712.59;;;8.50;99.79
8101;BME280;4093;53.470;9.832;2023-10-19T07:55:15;99715.47;;;8.72;99.83
8101;BME280;4093;53.470;9.832;2023-10-19T07:57:43;99706.41;;;8.57;99.71
8101;BME280;4093;53.470;9.832;2023-10-19T08:00:12;99699.94;;;8.74;98.92
8101;BME280;4093;53.470;9.832;2023-10-19T08:02:41;99670.84;;;8.38;99.29
8101;BME280;4093;53.470;9.832;2023-10-19T08:05:12;99694.88;;;8.71;99.16
8101;BME280;4093;53.470;9.832;2023-10-19T08:07:40;99698.09;;;8.79;99.62
8101;BME280;4093;53.470;9.832;2023-10-19T08:10:10;99667.28;;;8.43;99.34
8101;BME280;4093;53.470;9.832;2023-10-19T08:12:40;99672.72;;;8.96;98.87
8101;BME280;4093;53.470;9.832;2023-10-19T08:15:09;99671.06;;;8.63;99.51
8101;BME280;4093;53.470;9.832;2023-10-19T08:17:39;99684.31;;;8.80;99.64
8101;BME280;4093;53.470;9.832;2023-10-19T08:20:08;99683.19;;;8.90;99.91
8101;BME280;4093;53.470;9.832;2023-10-19T08:22:36;99648.41;;;8.43;100.00
8101;BME280;4093;53.470;9.832;2023-10-19T08:25:05;99672.81;;;8.61;100.00
8101;BME280;4093;53.470;9.832;2023-10-19T08:27:39;99691.41;;;9.34;99.19
8101;BME280;4093;53.470;9.832;2023-10-19T08:30:08;99682.50;;;8.84;98.78
8101;BME280;4093;53.470;9.832;2023-10-19T08:32:36;99678.22;;;8.84;98.94
8101;BME280;4093;53.470;9.832;2023-10-19T08:35:04;99674.44;;;8.65;100.00
8101;BME280;4093;53.470;9.832;2023-10-19T08:37:33;99659.13;;;8.58;100.00
8101;BME280;4093;53.470;9.832;2023-10-19T08:40:01;99667.34;;;8.73;100.00
8101;BME280;4093;53.470;9.832;2023-10-19T08:42:30;99677.06;;;9.24;98.84
8101;BME280;4093;53.470;9.832;2023-10-19T08:45:00;99654.84;;;8.59;100.00
8101;BME280;4093;53.470;9.832;2023-10-19T08:47:29;99659.66;;;8.40;100.00
8101;BME280;4093;53.470;9.832;2023-10-19T08:49:57;99680.28;;;9.32;99.07
8101;BME280;4093;53.470;9.832;2023-10-19T08:52:27;99675.13;;;8.71;100.00
8101;BME280;4093;53.470;9.832;2023-10-19T08:54:55;99688.66;;;9.39;98.85
8101;BME280;4093;53.470;9.832;2023-10-19T08:57:23;99679.66;;;8.93;99.10
8101;BME280;4093;53.470;9.832;2023-10-19T08:59:51;99681.91;;;8.74;100.00
8101;BME280;4093;53.470;9.832;2023-10-19T09:02:20;99672.00;;;8.26;100.00
8101;BME280;4093;53.470;9.832;2023-10-19T09:04:48;99684.28;;;8.50;100.00
8101;BME280;4093;53.470;9.832;2023-10-19T09:07:16;99695.38;;;8.85;100.00
8101;BME280;4093;53.470;9.832;2023-10-19T09:09:45;99678.63;;;8.69;100.00
8101;BME280;4093;53.470;9.832;2023-10-19T09:12:14;99683.56;;;9.08;100.00
8101;BME280;4093;53.470;9.832;2023-10-19T09:14:42;99678.94;;;9.19;98.70
8101;BME280;4093;53.470;9.832;2023-10-19T09:17:12;99669.97;;;9.02;99.11
8101;BME280;4093;53.470;9.832;2023-10-19T09:19:42;99668.34;;;8.98;98.77
8101;BME280;4093;53.470;9.832;2023-10-19T09:22:11;99684.53;;;9.33;99.07
8101;BME280;4093;53.470;9.832;2023-10-19T09:24:49;99610.03;;;8.32;99.26
8101;BME280;4093;53.470;9.832;2023-10-19T09:27:20;99648.94;;;8.55;100.00
8101;BME280;4093;53.470;9.832;2023-10-19T09:29:48;99665.84;;;8.64;100.00
8101;BME280;4093;53.470;9.832;2023-10-19T09:32:16;99691.34;;;9.36;99.68
8101;BME280;4093;53.470;9.832;2023-10-19T09:34:46;99700.50;;;9.74;96.98
8101;BME280;4093;53.470;9.832;2023-10-19T09:37:16;99698.06;;;9.41;98.98
8101;BME280;4093;53.470;9.832;2023-10-19T09:39:44;99675.47;;;8.90;99.67
8101;BME280;4093;53.470;9.832;2023-10-19T09:42:12;99692.09;;;9.10;99.45
8101;BME280;4093;53.470;9.832;2023-10-19T09:44:43;99682.69;;;8.77;98.93
8101;BME280;4093;53.470;9.832;2023-10-19T09:47:17;99678.16;;;8.86;100.00
8101;BME280;4093;53.470;9.832;2023-10-19T09:49:49;99678.31;;;8.79;100.00
8101;BME280;4093;53.470;9.832;2023-10-19T09:52:18;99691.44;;;8.72;100.00
8101;BME280;4093;53.470;9.832;2023-10-19T09:54:52;99681.88;;;8.43;100.00
8101;BME280;4093;53.470;9.832;2023-10-19T09:57:28;99692.19;;;8.75;100.00
8101;BME280;4093;53.470;9.832;2023-10-19T10:00:01;99700.53;;;8.84;100.00
8101;BME280;4093;53.470;9.832;2023-10-19T10:02:35;99695.78;;;8.70;100.00
8101;BME280;4093;53.470;9.832;2023-10-19T10:05:05;99711.13;;;9.35;99.89
8101;BME280;4093;53.470;9.832;2023-10-19T10:10:54;99698.41;;;8.99;99.54
8101;BME280;4093;53.470;9.832;2023-10-19T10:13:37;99706.00;;;9.04;100.00
8101;BME280;4093;53.470;9.832;2023-10-19T10:16:06;99625.56;;;8.29;100.00
8101;BME280;4093;53.470;9.832;2023-10-19T10:18:34;99694.00;;;8.72;100.00
8101;BME280;4093;53.470;9.832;2023-10-19T10:21:07;99688.47;;;8.86;100.00
8101;BME280;4093;53.470;9.832;2023-10-19T10:23:40;99677.97;;;8.61;100.00
8101;BME280;4093;53.470;9.832;2023-10-19T10:26:11;99693.19;;;9.01;100.00
8101;BME280;4093;53.470;9.832;2023-10-19T10:28:40;99684.25;;;8.83;100.00
8101;BME280;4093;53.470;9.832;2023-10-19T10:31:12;99673.66;;;8.92;100.00
8101;BME280;4093;53.470;9.832;2023-10-19T10:33:43;99661.44;;;8.69;100.00
8101;BME280;4093;53.470;9.832;2023-10-19T10:36:14;99664.66;;;8.77;100.00
8101;BME280;4093;53.470;9.832;2023-10-19T10:38:44;99664.72;;;9.34;100.00
8101;BME280;4093;53.470;9.832;2023-10-19T10:41:12;99644.56;;;8.89;100.00
8101;BME280;4093;53.470;9.832;2023-10-19T10:43:51;99652.69;;;9.04;100.00
8101;BME280;4093;53.470;9.832;2023-10-19T10:46:21;99667.13;;;9.40;100.00
8101;BME280;4093;53.470;9.832;2023-10-19T10:48:49;99667.38;;;9.02;99.78
8101;BME280;4093;53.470;9.832;2023-10-19T10:51:21;99651.78;;;8.77;100.00
8101;BME280;4093;53.470;9.832;2023-10-19T10:53:50;99671.97;;;9.22;100.00
8101;BME280;4093;53.470;9.832;2023-10-19T10:56:19;99652.22;;;8.61;100.00
8101;BME280;4093;53.470;9.832;2023-10-19T10:58:47;99663.25;;;8.66;100.00
8101;BME280;4093;53.470;9.832;2023-10-19T11:01:15;99656.81;;;8.80;100.00
8101;BME280;4093;53.470;9.832;2023-10-19T11:03:42;99661.78;;;8.88;100.00
8101;BME280;4093;53.470;9.832;2023-10-19T11:06:10;99662.09;;;8.76;100.00
8101;BME280;4093;53.470;9.832;2023-10-19T11:08:39;99671.03;;;9.25;99.05
8101;BME280;4093;53.470;9.832;2023-10-19T11:11:09;99662.94;;;8.76;100.00
8101;BME280;4093;53.470;9.832;2023-10-19T11:13:39;99674.91;;;9.09;100.00
8101;BME280;4093;53.470;9.832;2023-10-19T11:16:07;99675.97;;;9.03;100.00
8101;BME280;4093;53.470;9.832;2023-10-19T11:18:37;99680.50;;;9.53;99.97
8101;BME280;4093;53.470;9.832;2023-10-19T11:21:07;99675.88;;;9.06;100.00
8101;BME280;4093;53.470;9.832;2023-10-19T11:23:37;99658.84;;;8.38;100.00
8101;BME280;4093;53.470;9.832;2023-10-19T11:26:07;99680.75;;;8.86;100.00
8101;BME280;4093;53.470;9.832;2023-10-19T11:28:36;99674.97;;;9.07;100.00
8101;BME280;4093;53.470;9.832;2023-10-19T11:31:17;99659.94;;;8.61;100.00
8101;BME280;4093;53.470;9.832;2023-10-19T11:33:46;99650.13;;;8.42;100.00
8101;BME280;4093;53.470;9.832;2023-10-19T11:36:16;99659.06;;;8.62;100.00
8101;BME280;4093;53.470;9.832;2023-10-19T11:38:45;99652.28;;;8.89;100.00
8101;BME280;4093;53.470;9.832;2023-10-19T11:41:15;99664.81;;;9.02;100.00
8101;BME280;4093;53.470;9.832;2023-10-19T11:43:45;99658.28;;;9.48;100.00
8101;BME280;4093;53.470;9.832;2023-10-19T11:46:14;99636.75;;;8.61;100.00
8101;BME280;4093;53.470;9.832;2023-10-19T11:48:42;99647.72;;;8.69;100.00
8101;BME280;4093;53.470;9.832;2023-10-19T11:51:10;99642.41;;;8.73;100.00
8101;BME280;4093;53.470;9.832;2023-10-19T11:53:38;99662.22;;;9.02;100.00
8101;BME280;4093;53.470;9.832;2023-10-19T11:56:07;99645.56;;;8.83;100.00
8101;BME280;4093;53.470;9.832;2023-10-19T11:58:37;99632.63;;;9.44;100.00
8101;BME280;4093;53.470;9.832;2023-10-19T12:01:06;99608.72;;;8.81;100.00
8101;BME280;4093;53.470;9.832;2023-10-19T12:03:35;99609.41;;;8.56;100.00
8101;BME280;4093;53.470;9.832;2023-10-19T12:06:04;99624.03;;;9.43;100.00
8101;BME280;4093;53.470;9.832;2023-10-19T12:08:33;99613.44;;;9.24;100.00
8101;BME280;4093;53.470;9.832;2023-10-19T12:11:01;99610.38;;;9.12;100.00
8101;BME280;4093;53.470;9.832;2023-10-19T12:13:30;99610.75;;;8.99;100.00
8101;BME280;4093;53.470;9.832;2023-10-19T12:16:00;99604.16;;;8.60;100.00
8101;BME280;4093;53.470;9.832;2023-10-19T12:18:31;99612.06;;;9.13;100.00
8101;BME280;4093;53.470;9.832;2023-10-19T12:20:59;99619.75;;;9.42;100.00
8101;BME280;4093;53.470;9.832;2023-10-19T12:23:27;99598.75;;;8.69;100.00
8101;BME280;4093;53.470;9.832;2023-10-19T12:25:57;99606.81;;;8.86;100.00
8101;BME280;4093;53.470;9.832;2023-10-19T12:28:25;99617.88;;;8.90;100.00
8101;BME280;4093;53.470;9.832;2023-10-19T12:30:52;99616.13;;;9.49;100.00
8101;BME280;4093;53.470;9.832;2023-10-19T12:33:24;99606.38;;;9.31;100.00
8101;BME280;4093;53.470;9.832;2023-10-19T12:35:55;99587.53;;;8.70;100.00
8101;BME280;4093;53.470;9.832;2023-10-19T12:38:23;99572.31;;;8.62;100.00
8101;BME280;4093;53.470;9.832;2023-10-19T12:40:52;99581.66;;;8.65;100.00
8101;BME280;4093;53.470;9.832;2023-10-19T12:43:20;99582.38;;;8.71;100.00
8101;BME280;4093;53.470;9.832;2023-10-19T12:45:49;99587.03;;;8.88;100.00
8101;BME280;4093;53.470;9.832;2023-10-19T12:48:21;99601.78;;;9.39;100.00
8101;BME280;4093;53.470;9.832;2023-10-19T12:50:53;99592.66;;;9.29;100.00
8101;BME280;4093;53.470;9.832;2023-10-19T12:53:21;99588.97;;;9.10;100.00
8101;BME280;4093;53.470;9.832;2023-10-19T12:55:51;99537.88;;;8.65;100.00
8101;BME280;4093;53.470;9.832;2023-10-19T12:58:19;99605.22;;;9.40;100.00
8101;BME280;4093;53.470;9.832;2023-10-19T13:00:47;99582.31;;;9.02;100.00
8101;BME280;4093;53.470;9.832;2023-10-19T13:03:15;99583.16;;;9.03;100.00
8101;BME280;4093;53.470;9.832;2023-10-19T13:05:43;99580.38;;;8.79;100.00
8101;BME280;4093;53.470;9.832;2023-10-19T13:08:14;99564.00;;;8.82;100.00
8101;BME280;4093;53.470;9.832;2023-10-19T13:10:43;99572.81;;;8.75;100.00
8101;BME280;4093;53.470;9.832;2023-10-19T13:13:12;99576.16;;;8.77;100.00
8101;BME280;4093;53.470;9.832;2023-10-19T13:15:42;99574.66;;;8.99;100.00
8101;BME280;4093;53.470;9.832;2023-10-19T13:18:12;99567.28;;;8.87;100.00
8101;BME280;4093;53.470;9.832;2023-10-19T13:20:47;99583.91;;;9.07;100.00
8101;BME280;4093;53.470;9.832;2023-10-19T13:23:16;99575.28;;;8.78;100.00
8101;BME280;4093;53.470;9.832;2023-10-19T13:25:48;99587.31;;;9.35;100.00
8101;BME280;4093;53.470;9.832;2023-10-19T13:28:21;99577.09;;;9.04;100.00
8101;BME280;4093;53.470;9.832;2023-10-19T13:30:50;99591.38;;;9.42;100.00
8101;BME280;4093;53.470;9.832;2023-10-19T13:33:20;99569.06;;;8.85;100.00
8101;BME280;4093;53.470;9.832;2023-10-19T13:35:48;99580.09;;;8.90;100.00
8101;BME280;4093;53.470;9.832;2023-10-19T13:38:18;99585.38;;;8.86;100.00
8101;BME280;4093;53.470;9.832;2023-10-19T13:40:47;99584.00;;;9.02;100.00
8101;BME280;4093;53.470;9.832;2023-10-19T13:43:17;99594.06;;;9.11;100.00
8101;BME280;4093;53.470;9.832;2023-10-19T13:45:47;99575.59;;;8.97;100.00